sensor_id;sensor_type;location;lat;lon;timestamp;P1;durP1;ratioP1;P2;durP2;ratioP2
9848;SDS011;4963;51.444;6.528;2023-04-15T00:01:26;8.07;;;4.83;;
9848;SDS011;4963;51.444;6.528;2023-04-15T00:03:54;11.00;;;5.20;;
9848;SDS011;4963;51.444;6.528;2023-04-15T00:06:21;6.70;;;4.93;;
9848;SDS011;4963;51.444;6.528;2023-04-15T00:08:48;8.13;;;5.07;;
9848;SDS011;4963;51.444;6.528;2023-04-15T00:11:17;10.80;;;4.83;;
9848;SDS011;4963;51.444;6.528;2023-04-15T00:13:44;7.60;;;5.20;;
9848;SDS011;4963;51.444;6.528;2023-04-15T00:16:11;7.13;;;5.10;;
9848;SDS011;4963;51.444;6.528;2023-04-15T00:18:38;10.57;;;5.90;;
9848;SDS011;4963;51.444;6.528;2023-04-15T00:21:05;7.03;;;5.90;;
9848;SDS011;4963;51.444;6.528;2023-04-15T00:23:32;8.17;;;5.33;;
9848;SDS011;4963;51.444;6.528;2023-04-15T00:26:00;7.87;;;5.63;;
9848;SDS011;4963;51.444;6.528;2023-04-15T00:28:28;9.90;;;5.80;;
9848;SDS011;4963;51.444;6.528;2023-04-15T00:30:56;12.40;;;5.60;;
9848;SDS011;4963;51.444;6.528;2023-04-15T00:33:23;7.87;;;5.57;;
9848;SDS011;4963;51.444;6.528;2023-04-15T00:35:50;7.53;;;5.50;;
9848;SDS011;4963;51.444;6.528;2023-04-15T00:38:17;8.70;;;5.20;;
9848;SDS011;4963;51.444;6.528;2023-04-15T00:40:44;9.50;;;5.87;;
9848;SDS011;4963;51.444;6.528;2023-04-15T00:43:11;10.07;;;6.13;;
9848;SDS011;4963;51.444;6.528;2023-04-15T00:45:39;7.67;;;5.97;;
9848;SDS011;4963;51.444;6.528;2023-04-15T00:48:06;10.43;;;5.40;;
9848;SDS011;4963;51.444;6.528;2023-04-15T00:50:33;7.93;;;6.50;;
9848;SDS011;4963;51.444;6.528;2023-04-15T00:53:00;8.03;;;6.40;;
9848;SDS011;4963;51.444;6.528;2023-04-15T00:55:27;11.00;;;6.57;;
9848;SDS011;4963;51.444;6.528;2023-04-15T00:57:53;9.10;;;6.53;;
9848;SDS011;4963;51.444;6.528;2023-04-15T01:00:21;8.27;;;5.90;;
9848;SDS011;4963;51.444;6.528;2023-04-15T01:02:50;6.93;;;5.80;;
9848;SDS011;4963;51.444;6.528;2023-04-15T01:05:17;9.50;;;6.67;;
9848;SDS011;4963;51.444;6.528;2023-04-15T01:07:44;8.70;;;6.83;;
9848;SDS011;4963;51.444;6.528;2023-04-15T01:10:11;8.33;;;6.17;;
9848;SDS011;4963;51.444;6.528;2023-04-15T01:12:38;7.40;;;6.30;;
9848;SDS011;4963;51.444;6.528;2023-04-15T01:15:06;10.17;;;6.20;;
9848;SDS011;4963;51.444;6.528;2023-04-15T01:17:36;10.37;;;6.83;;
9848;SDS011;4963;51.444;6.528;2023-04-15T01:20:05;8.87;;;7.03;;
9848;SDS011;4963;51.444;6.528;2023-04-15T01:22:34;9.87;;;6.30;;
9848;SDS011;4963;51.444;6.528;2023-04-15T01:25:03;11.57;;;7.23;;
9848;SDS011;4963;51.444;6.528;2023-04-15T01:27:36;12.60;;;7.30;;
9848;SDS011;4963;51.444;6.528;2023-04-15T01:30:05;10.67;;;7.27;;
9848;SDS011;4963;51.444;6.528;2023-04-15T01:32:33;11.23;;;7.57;;
9848;SDS011;4963;51.444;6.528;2023-04-15T01:34:59;7.80;;;6.03;;
9848;SDS011;4963;51.444;6.528;2023-04-15T01:37:26;11.37;;;6.90;;
9848;SDS011;4963;51.444;6.528;2023-04-15T01:39:54;8.97;;;6.73;;
9848;SDS011;4963;51.444;6.528;2023-04-15T01:42:22;9.30;;;6.80;;
9848;SDS011;4963;51.444;6.528;2023-04-15T01:44:50;8.03;;;6.27;;
9848;SDS011;4963;51.444;6.528;2023-04-15T01:47:17;8.03;;;6.47;;
9848;SDS011;4963;51.444;6.528;2023-04-15T01:49:44;8.43;;;6.13;;
9848;SDS011;4963;51.444;6.528;2023-04-15T01:52:11;10.77;;;7.00;;
9848;SDS011;4963;51.444;6.528;2023-04-15T01:54:38;10.10;;;6.33;;
9848;SDS011;4963;51.444;6.528;2023-04-15T01:57:05;11.47;;;7.07;;
9848;SDS011;4963;51.444;6.528;2023-04-15T01:59:32;8.80;;;7.60;;
9848;SDS011;4963;51.444;6.528;2023-04-15T02:02:00;10.33;;;7.27;;
9848;SDS011;4963;51.444;6.528;2023-04-15T02:04:26;8.53;;;6.17;;
9848;SDS011;4963;51.444;6.528;2023-04-15T02:06:53;14.47;;;7.60;;
9848;SDS011;4963;51.444;6.528;2023-04-15T02:09:20;12.47;;;6.57;;
9848;SDS011;4963;51.444;6.528;2023-04-15T02:11:47;9.47;;;6.97;;
9848;SDS011;4963;51.444;6.528;2023-04-15T02:14:14;11.20;;;7.27;;
9848;SDS011;4963;51.444;6.528;2023-04-15T02:16:41;9.70;;;6.80;;
9848;SDS011;4963;51.444;6.528;2023-04-15T02:19:09;9.80;;;7.23;;
9848;SDS011;4963;51.444;6.528;2023-04-15T02:21:36;10.10;;;7.33;;
9848;SDS011;4963;51.444;6.528;2023-04-15T02:24:04;11.00;;;7.23;;
9848;SDS011;4963;51.444;6.528;2023-04-15T02:26:31;14.03;;;7.40;;
9848;SDS011;4963;51.444;6.528;2023-04-15T02:28:57;9.40;;;6.60;;
9848;SDS011;4963;51.444;6.528;2023-04-15T02:31:24;10.47;;;6.87;;
9848;SDS011;4963;51.444;6.528;2023-04-15T02:33:51;11.80;;;7.50;;
9848;SDS011;4963;51.444;6.528;2023-04-15T02:36:19;11.17;;;7.73;;
9848;SDS011;4963;51.444;6.528;2023-04-15T02:38:47;12.03;;;7.97;;
9848;SDS011;4963;51.444;6.528;2023-04-15T02:41:14;12.67;;;8.53;;
9848;SDS011;4963;51.444;6.528;2023-04-15T02:43:41;12.43;;;7.53;;
9848;SDS011;4963;51.444;6.528;2023-04-15T02:46:08;10.27;;;6.93;;
9848;SDS011;4963;51.444;6.528;2023-04-15T02:48:38;12.93;;;8.40;;
9848;SDS011;4963;51.444;6.528;2023-04-15T02:51:12;8.63;;;7.63;;
9848;SDS011;4963;51.444;6.528;2023-04-15T02:53:41;13.77;;;7.37;;
9848;SDS011;4963;51.444;6.528;2023-04-15T02:56:08;13.87;;;7.73;;
9848;SDS011;4963;51.444;6.528;2023-04-15T02:58:35;12.80;;;8.43;;
9848;SDS011;4963;51.444;6.528;2023-04-15T03:01:02;10.93;;;7.90;;
9848;SDS011;4963;51.444;6.528;2023-04-15T03:03:29;10.90;;;7.80;;
9848;SDS011;4963;51.444;6.528;2023-04-15T03:05:56;11.30;;;8.03;;
9848;SDS011;4963;51.444;6.528;2023-04-15T03:08:23;12.87;;;7.77;;
9848;SDS011;4963;51.444;6.528;2023-04-15T03:10:51;13.53;;;8.30;;
9848;SDS011;4963;51.444;6.528;2023-04-15T03:13:18;13.90;;;9.30;;
9848;SDS011;4963;51.444;6.528;2023-04-15T03:15:46;12.87;;;9.30;;
9848;SDS011;4963;51.444;6.528;2023-04-15T03:18:12;11.27;;;8.40;;
9848;SDS011;4963;51.444;6.528;2023-04-15T03:20:39;13.53;;;9.30;;
9848;SDS011;4963;51.444;6.528;2023-04-15T03:23:06;10.50;;;8.77;;
9848;SDS011;4963;51.444;6.528;2023-04-15T03:25:33;12.87;;;8.20;;
9848;SDS011;4963;51.444;6.528;2023-04-15T03:28:02;13.70;;;8.00;;
9848;SDS011;4963;51.444;6.528;2023-04-15T03:30:29;13.27;;;8.53;;
9848;SDS011;4963;51.444;6.528;2023-04-15T03:32:56;11.13;;;7.80;;
9848;SDS011;4963;51.444;6.528;2023-04-15T03:35:23;12.27;;;7.60;;
9848;SDS011;4963;51.444;6.528;2023-04-15T03:37:50;10.87;;;8.20;;
9848;SDS011;4963;51.444;6.528;2023-04-15T03:40:16;15.20;;;7.67;;
9848;SDS011;4963;51.444;6.528;2023-04-15T03:42:43;11.10;;;8.07;;
9848;SDS011;4963;51.444;6.528;2023-04-15T03:45:11;12.20;;;7.97;;
9848;SDS011;4963;51.444;6.528;2023-04-15T03:47:38;10.17;;;8.27;;
9848;SDS011;4963;51.444;6.528;2023-04-15T03:50:05;9.37;;;7.63;;
9848;SDS011;4963;51.444;6.528;2023-04-15T03:52:33;10.07;;;7.67;;
9848;SDS011;4963;51.444;6.528;2023-04-15T03:55:00;10.70;;;7.97;;
9848;SDS011;4963;51.444;6.528;2023-04-15T03:57:26;9.97;;;7.60;;
9848;SDS011;4963;51.444;6.528;2023-04-15T03:59:53;11.03;;;7.47;;
9848;SDS011;4963;51.444;6.528;2023-04-15T04:02:21;9.67;;;7.30;;
9848;SDS011;4963;51.444;6.528;2023-04-15T04:04:48;9.87;;;7.57;;
9848;SDS011;4963;51.444;6.528;2023-04-15T04:07:15;10.57;;;8.00;;
9848;SDS011;4963;51.444;6.528;2023-04-15T04:09:42;9.97;;;7.33;;
9848;SDS011;4963;51.444;6.528;2023-04-15T04:12:09;10.60;;;7.73;;
9848;SDS011;4963;51.444;6.528;2023-04-15T04:14:36;10.20;;;7.63;;
9848;SDS011;4963;51.444;6.528;2023-04-15T04:17:03;12.47;;;8.07;;
9848;SDS011;4963;51.444;6.528;2023-04-15T04:19:31;10.63;;;7.70;;
9848;SDS011;4963;51.444;6.528;2023-04-15T04:21:58;11.10;;;8.60;;
9848;SDS011;4963;51.444;6.528;2023-04-15T04:24:25;10.40;;;8.03;;
9848;SDS011;4963;51.444;6.528;2023-04-15T04:26:51;15.60;;;8.40;;
9848;SDS011;4963;51.444;6.528;2023-04-15T04:29:18;11.80;;;8.20;;
9848;SDS011;4963;51.444;6.528;2023-04-15T04:31:45;12.13;;;8.50;;
9848;SDS011;4963;51.444;6.528;2023-04-15T04:34:12;11.17;;;8.90;;
9848;SDS011;4963;51.444;6.528;2023-04-15T04:36:40;13.40;;;9.23;;
9848;SDS011;4963;51.444;6.528;2023-04-15T04:39:07;11.47;;;8.10;;
9848;SDS011;4963;51.444;6.528;2023-04-15T04:41:34;9.20;;;7.87;;
9848;SDS011;4963;51.444;6.528;2023-04-15T04:44:01;11.77;;;8.40;;
9848;SDS011;4963;51.444;6.528;2023-04-15T04:46:27;10.40;;;7.67;;
9848;SDS011;4963;51.444;6.528;2023-04-15T04:48:54;10.97;;;8.53;;
9848;SDS011;4963;51.444;6.528;2023-04-15T04:51:21;11.13;;;8.13;;
9848;SDS011;4963;51.444;6.528;2023-04-15T04:53:49;10.73;;;7.63;;
9848;SDS011;4963;51.444;6.528;2023-04-15T04:56:16;12.77;;;8.33;;
9848;SDS011;4963;51.444;6.528;2023-04-15T04:58:43;11.30;;;8.90;;
9848;SDS011;4963;51.444;6.528;2023-04-15T05:01:10;12.17;;;8.30;;
9848;SDS011;4963;51.444;6.528;2023-04-15T05:03:37;12.67;;;8.63;;
9848;SDS011;4963;51.444;6.528;2023-04-15T05:06:03;11.23;;;8.03;;
9848;SDS011;4963;51.444;6.528;2023-04-15T05:08:32;12.07;;;8.43;;
9848;SDS011;4963;51.444;6.528;2023-04-15T05:11:00;13.23;;;8.93;;
9848;SDS011;4963;51.444;6.528;2023-04-15T05:13:27;10.10;;;8.00;;
9848;SDS011;4963;51.444;6.528;2023-04-15T05:15:54;11.07;;;7.90;;
9848;SDS011;4963;51.444;6.528;2023-04-15T05:18:21;9.60;;;8.50;;
9848;SDS011;4963;51.444;6.528;2023-04-15T05:20:48;12.03;;;8.60;;
9848;SDS011;4963;51.444;6.528;2023-04-15T05:23:15;10.47;;;8.60;;
9848;SDS011;4963;51.444;6.528;2023-04-15T05:25:42;11.93;;;8.40;;
9848;SDS011;4963;51.444;6.528;2023-04-15T05:28:10;13.30;;;8.47;;
9848;SDS011;4963;51.444;6.528;2023-04-15T05:30:37;12.10;;;8.53;;
9848;SDS011;4963;51.444;6.528;2023-04-15T05:33:05;14.33;;;9.13;;
9848;SDS011;4963;51.444;6.528;2023-04-15T05:35:32;10.53;;;8.50;;
9848;SDS011;4963;51.444;6.528;2023-04-15T05:37:58;11.70;;;9.03;;
9848;SDS011;4963;51.444;6.528;2023-04-15T05:40:25;11.67;;;8.87;;
9848;SDS011;4963;51.444;6.528;2023-04-15T05:42:52;9.93;;;8.50;;
9848;SDS011;4963;51.444;6.528;2023-04-15T05:45:20;10.40;;;8.17;;
9848;SDS011;4963;51.444;6.528;2023-04-15T05:47:47;11.40;;;8.43;;
9848;SDS011;4963;51.444;6.528;2023-04-15T05:50:15;10.37;;;8.73;;
9848;SDS011;4963;51.444;6.528;2023-04-15T05:52:41;11.37;;;8.40;;
9848;SDS011;4963;51.444;6.528;2023-04-15T05:55:09;11.23;;;8.73;;
9848;SDS011;4963;51.444;6.528;2023-04-15T05:57:36;10.30;;;8.33;;
9848;SDS011;4963;51.444;6.528;2023-04-15T06:00:04;14.83;;;9.40;;
9848;SDS011;4963;51.444;6.528;2023-04-15T06:02:32;12.17;;;9.03;;
9848;SDS011;4963;51.444;6.528;2023-04-15T06:05:00;13.70;;;9.63;;
9848;SDS011;4963;51.444;6.528;2023-04-15T06:07:27;12.30;;;10.00;;
9848;SDS011;4963;51.444;6.528;2023-04-15T06:09:54;13.33;;;10.53;;
9848;SDS011;4963;51.444;6.528;2023-04-15T06:12:21;14.60;;;9.90;;
9848;SDS011;4963;51.444;6.528;2023-04-15T06:14:48;11.07;;;9.50;;
9848;SDS011;4963;51.444;6.528;2023-04-15T06:17:15;12.60;;;10.30;;
9848;SDS011;4963;51.444;6.528;2023-04-15T06:19:44;11.47;;;9.73;;
9848;SDS011;4963;51.444;6.528;2023-04-15T06:22:11;12.93;;;10.47;;
9848;SDS011;4963;51.444;6.528;2023-04-15T06:24:38;12.70;;;10.33;;
9848;SDS011;4963;51.444;6.528;2023-04-15T06:27:05;14.90;;;10.53;;
9848;SDS011;4963;51.444;6.528;2023-04-15T06:29:32;14.73;;;10.73;;
9848;SDS011;4963;51.444;6.528;2023-04-15T06:31:58;13.37;;;11.70;;
9848;SDS011;4963;51.444;6.528;2023-04-15T06:34:25;16.43;;;11.57;;
9848;SDS011;4963;51.444;6.528;2023-04-15T06:36:53;15.77;;;12.70;;
9848;SDS011;4963;51.444;6.528;2023-04-15T06:39:20;14.77;;;12.70;;
9848;SDS011;4963;51.444;6.528;2023-04-15T06:41:47;15.97;;;12.63;;
9848;SDS011;4963;51.444;6.528;2023-04-15T06:44:14;15.53;;;12.57;;
9848;SDS011;4963;51.444;6.528;2023-04-15T06:46:42;14.43;;;11.90;;
9848;SDS011;4963;51.444;6.528;2023-04-15T06:49:09;14.77;;;12.67;;
9848;SDS011;4963;51.444;6.528;2023-04-15T06:51:36;13.70;;;11.77;;
9848;SDS011;4963;51.444;6.528;2023-04-15T06:54:04;16.50;;;12.57;;
9848;SDS011;4963;51.444;6.528;2023-04-15T06:56:31;15.13;;;12.47;;
9848;SDS011;4963;51.444;6.528;2023-04-15T06:58:58;15.03;;;12.43;;
9848;SDS011;4963;51.444;6.528;2023-04-15T07:01:25;15.67;;;12.97;;
9848;SDS011;4963;51.444;6.528;2023-04-15T07:03:52;16.47;;;12.00;;
9848;SDS011;4963;51.444;6.528;2023-04-15T07:06:19;16.53;;;12.40;;
9848;SDS011;4963;51.444;6.528;2023-04-15T07:08:46;16.37;;;11.67;;
9848;SDS011;4963;51.444;6.528;2023-04-15T07:11:14;16.90;;;12.37;;
9848;SDS011;4963;51.444;6.528;2023-04-15T07:13:41;14.63;;;12.40;;
9848;SDS011;4963;51.444;6.528;2023-04-15T07:16:08;16.50;;;12.77;;
9848;SDS011;4963;51.444;6.528;2023-04-15T07:18:34;14.97;;;12.60;;
9848;SDS011;4963;51.444;6.528;2023-04-15T07:21:01;16.67;;;12.37;;
9848;SDS011;4963;51.444;6.528;2023-04-15T07:23:28;15.83;;;13.00;;
9848;SDS011;4963;51.444;6.528;2023-04-15T07:25:55;14.27;;;12.10;;
9848;SDS011;4963;51.444;6.528;2023-04-15T07:28:23;14.70;;;11.70;;
9848;SDS011;4963;51.444;6.528;2023-04-15T07:30:50;15.83;;;11.83;;
9848;SDS011;4963;51.444;6.528;2023-04-15T07:33:17;14.20;;;11.90;;
9848;SDS011;4963;51.444;6.528;2023-04-15T07:35:44;12.60;;;11.03;;
9848;SDS011;4963;51.444;6.528;2023-04-15T07:38:11;12.93;;;10.70;;
9848;SDS011;4963;51.444;6.528;2023-04-15T07:40:38;12.07;;;10.67;;
9848;SDS011;4963;51.444;6.528;2023-04-15T07:43:06;12.53;;;9.90;;
9848;SDS011;4963;51.444;6.528;2023-04-15T07:45:35;14.27;;;9.57;;
9848;SDS011;4963;51.444;6.528;2023-04-15T07:48:02;10.83;;;9.47;;
9848;SDS011;4963;51.444;6.528;2023-04-15T07:50:29;11.70;;;9.67;;
9848;SDS011;4963;51.444;6.528;2023-04-15T07:52:56;11.87;;;9.20;;
9848;SDS011;4963;51.444;6.528;2023-04-15T07:55:23;11.77;;;8.87;;
9848;SDS011;4963;51.444;6.528;2023-04-15T07:57:50;11.27;;;9.10;;
9848;SDS011;4963;51.444;6.528;2023-04-15T08:00:17;8.87;;;7.67;;
9848;SDS011;4963;51.444;6.528;2023-04-15T08:02:45;8.83;;;7.93;;
9848;SDS011;4963;51.444;6.528;2023-04-15T08:05:12;8.00;;;6.83;;
9848;SDS011;4963;51.444;6.528;2023-04-15T08:07:39;8.50;;;7.40;;
9848;SDS011;4963;51.444;6.528;2023-04-15T08:10:07;7.87;;;6.70;;
9848;SDS011;4963;51.444;6.528;2023-04-15T08:12:34;7.23;;;5.80;;
9848;SDS011;4963;51.444;6.528;2023-04-15T08:15:01;6.50;;;5.50;;
9848;SDS011;4963;51.444;6.528;2023-04-15T08:17:28;7.13;;;5.63;;
9848;SDS011;4963;51.444;6.528;2023-04-15T08:19:56;6.37;;;5.00;;
9848;SDS011;4963;51.444;6.528;2023-04-15T08:22:23;6.47;;;5.40;;
9848;SDS011;4963;51.444;6.528;2023-04-15T08:24:50;7.07;;;5.50;;
9848;SDS011;4963;51.444;6.528;2023-04-15T08:27:17;7.00;;;5.23;;
9848;SDS011;4963;51.444;6.528;2023-04-15T08:29:44;6.97;;;5.77;;
9848;SDS011;4963;51.444;6.528;2023-04-15T08:32:11;6.50;;;5.20;;
9848;SDS011;4963;51.444;6.528;2023-04-15T08:34:38;5.53;;;4.20;;
9848;SDS011;4963;51.444;6.528;2023-04-15T08:37:06;5.70;;;4.47;;
9848;SDS011;4963;51.444;6.528;2023-04-15T08:39:32;6.50;;;4.17;;
9848;SDS011;4963;51.444;6.528;2023-04-15T08:42:00;5.57;;;4.40;;
9848;SDS011;4963;51.444;6.528;2023-04-15T08:44:28;6.50;;;5.13;;
9848;SDS011;4963;51.444;6.528;2023-04-15T08:46:57;5.50;;;4.50;;
9848;SDS011;4963;51.444;6.528;2023-04-15T08:49:27;6.50;;;4.60;;
9848;SDS011;4963;51.444;6.528;2023-04-15T08:51:55;4.90;;;4.40;;
9848;SDS011;4963;51.444;6.528;2023-04-15T08:54:25;3.87;;;3.47;;
9848;SDS011;4963;51.444;6.528;2023-04-15T08:56:53;4.40;;;3.67;;
9848;SDS011;4963;51.444;6.528;2023-04-15T08:59:20;6.27;;;3.70;;
9848;SDS011;4963;51.444;6.528;2023-04-15T09:01:47;4.60;;;3.93;;
9848;SDS011;4963;51.444;6.528;2023-04-15T09:04:14;5.37;;;3.40;;
9848;SDS011;4963;51.444;6.528;2023-04-15T09:06:42;5.23;;;3.90;;
9848;SDS011;4963;51.444;6.528;2023-04-15T09:09:09;7.27;;;3.97;;
9848;SDS011;4963;51.444;6.528;2023-04-15T09:11:39;4.70;;;4.20;;
9848;SDS011;4963;51.444;6.528;2023-04-15T09:14:06;4.90;;;4.40;;
9848;SDS011;4963;51.444;6.528;2023-04-15T09:19:24;5.13;;;4.60;;
9848;SDS011;4963;51.444;6.528;2023-04-15T09:21:52;5.57;;;4.60;;
9848;SDS011;4963;51.444;6.528;2023-04-15T09:24:20;5.53;;;4.13;;
9848;SDS011;4963;51.444;6.528;2023-04-15T09:26:50;5.27;;;4.57;;
9848;SDS011;4963;51.444;6.528;2023-04-15T09:29:18;5.03;;;4.43;;
9848;SDS011;4963;51.444;6.528;2023-04-15T09:31:45;4.00;;;3.30;;
9848;SDS011;4963;51.444;6.528;2023-04-15T09:34:12;6.03;;;3.27;;
9848;SDS011;4963;51.444;6.528;2023-04-15T09:36:50;6.20;;;3.17;;
9848;SDS011;4963;51.444;6.528;2023-04-15T09:39:18;4.53;;;3.43;;
9848;SDS011;4963;51.444;6.528;2023-04-15T09:41:45;3.87;;;3.37;;
9848;SDS011;4963;51.444;6.528;2023-04-15T09:44:22;5.17;;;3.67;;
9848;SDS011;4963;51.444;6.528;2023-04-15T09:46:50;4.10;;;3.53;;
9848;SDS011;4963;51.444;6.528;2023-04-15T09:49:17;5.73;;;4.20;;
9848;SDS011;4963;51.444;6.528;2023-04-15T09:51:44;7.10;;;4.37;;
9848;SDS011;4963;51.444;6.528;2023-04-15T09:54:13;5.97;;;4.60;;
9848;SDS011;4963;51.444;6.528;2023-04-15T09:56:44;5.37;;;4.17;;
9848;SDS011;4963;51.444;6.528;2023-04-15T09:59:11;4.97;;;4.47;;
9848;SDS011;4963;51.444;6.528;2023-04-15T10:01:39;6.73;;;5.13;;
9848;SDS011;4963;51.444;6.528;2023-04-15T10:04:07;7.07;;;4.70;;
9848;SDS011;4963;51.444;6.528;2023-04-15T10:06:35;4.53;;;4.07;;
9848;SDS011;4963;51.444;6.528;2023-04-15T10:09:01;6.07;;;4.53;;
9848;SDS011;4963;51.444;6.528;2023-04-15T10:11:29;5.87;;;4.63;;
9848;SDS011;4963;51.444;6.528;2023-04-15T10:13:56;6.70;;;5.03;;
9848;SDS011;4963;51.444;6.528;2023-04-15T10:16:25;6.93;;;4.83;;
9848;SDS011;4963;51.444;6.528;2023-04-15T10:18:54;6.13;;;4.43;;
9848;SDS011;4963;51.444;6.528;2023-04-15T10:21:22;6.47;;;4.80;;
9848;SDS011;4963;51.444;6.528;2023-04-15T10:23:50;5.80;;;4.47;;
9848;SDS011;4963;51.444;6.528;2023-04-15T10:26:17;7.63;;;5.30;;
9848;SDS011;4963;51.444;6.528;2023-04-15T10:28:43;9.20;;;5.40;;
9848;SDS011;4963;51.444;6.528;2023-04-15T10:31:12;7.30;;;4.73;;
9848;SDS011;4963;51.444;6.528;2023-04-15T10:33:40;6.73;;;4.63;;
9848;SDS011;4963;51.444;6.528;2023-04-15T10:36:09;5.37;;;4.10;;
9848;SDS011;4963;51.444;6.528;2023-04-15T10:38:37;5.40;;;4.43;;
9848;SDS011;4963;51.444;6.528;2023-04-15T10:41:11;4.90;;;3.80;;
9848;SDS011;4963;51.444;6.528;2023-04-15T10:43:39;4.70;;;3.80;;
9848;SDS011;4963;51.444;6.528;2023-04-15T10:46:11;6.73;;;3.57;;
9848;SDS011;4963;51.444;6.528;2023-04-15T10:48:38;4.70;;;4.13;;
9848;SDS011;4963;51.444;6.528;2023-04-15T10:51:14;5.13;;;4.00;;
9848;SDS011;4963;51.444;6.528;2023-04-15T10:53:41;5.70;;;3.73;;
9848;SDS011;4963;51.444;6.528;2023-04-15T10:56:08;3.80;;;3.40;;
9848;SDS011;4963;51.444;6.528;2023-04-15T10:58:40;3.90;;;3.50;;
9848;SDS011;4963;51.444;6.528;2023-04-15T11:01:07;5.77;;;4.37;;
9848;SDS011;4963;51.444;6.528;2023-04-15T11:03:35;4.83;;;4.33;;
9848;SDS011;4963;51.444;6.528;2023-04-15T11:06:03;5.63;;;4.60;;
9848;SDS011;4963;51.444;6.528;2023-04-15T11:11:20;5.70;;;5.10;;
9848;SDS011;4963;51.444;6.528;2023-04-15T11:13:47;5.93;;;4.77;;
9848;SDS011;4963;51.444;6.528;2023-04-15T11:16:15;7.73;;;4.97;;
9848;SDS011;4963;51.444;6.528;2023-04-15T11:18:41;6.23;;;4.80;;
9848;SDS011;4963;51.444;6.528;2023-04-15T11:21:19;5.63;;;4.80;;
9848;SDS011;4963;51.444;6.528;2023-04-15T11:23:50;6.00;;;5.40;;
9848;SDS011;4963;51.444;6.528;2023-04-15T11:26:18;6.10;;;5.03;;
9848;SDS011;4963;51.444;6.528;2023-04-15T11:28:51;5.00;;;4.43;;
9848;SDS011;4963;51.444;6.528;2023-04-15T11:31:18;5.00;;;4.00;;
9848;SDS011;4963;51.444;6.528;2023-04-15T11:33:52;5.03;;;4.23;;
9848;SDS011;4963;51.444;6.528;2023-04-15T11:36:22;4.73;;;3.83;;
9848;SDS011;4963;51.444;6.528;2023-04-15T11:38:51;4.30;;;3.90;;
9848;SDS011;4963;51.444;6.528;2023-04-15T11:41:20;5.00;;;4.30;;
9848;SDS011;4963;51.444;6.528;2023-04-15T11:43:47;4.10;;;3.70;;
9848;SDS011;4963;51.444;6.528;2023-04-15T11:46:14;4.80;;;4.30;;
9848;SDS011;4963;51.444;6.528;2023-04-15T11:48:42;4.20;;;3.80;;
9848;SDS011;4963;51.444;6.528;2023-04-15T11:51:10;3.77;;;3.37;;
9848;SDS011;4963;51.444;6.528;2023-04-15T11:53:38;5.40;;;3.60;;
9848;SDS011;4963;51.444;6.528;2023-04-15T11:56:06;3.50;;;3.20;;
9848;SDS011;4963;51.444;6.528;2023-04-15T11:58:36;4.43;;;3.73;;
9848;SDS011;4963;51.444;6.528;2023-04-15T12:01:03;4.50;;;3.63;;
9848;SDS011;4963;51.444;6.528;2023-04-15T12:03:35;4.07;;;3.27;;
9848;SDS011;4963;51.444;6.528;2023-04-15T12:06:03;5.47;;;3.73;;
9848;SDS011;4963;51.444;6.528;2023-04-15T12:08:58;4.07;;;3.40;;
9848;SDS011;4963;51.444;6.528;2023-04-15T12:11:34;4.47;;;3.33;;
9848;SDS011;4963;51.444;6.528;2023-04-15T12:14:06;4.43;;;3.73;;
9848;SDS011;4963;51.444;6.528;2023-04-15T12:16:35;3.93;;;3.40;;
9848;SDS011;4963;51.444;6.528;2023-04-15T12:19:05;4.77;;;3.73;;
9848;SDS011;4963;51.444;6.528;2023-04-15T12:21:34;4.63;;;3.60;;
9848;SDS011;4963;51.444;6.528;2023-04-15T12:24:03;6.33;;;4.30;;
9848;SDS011;4963;51.444;6.528;2023-04-15T12:26:32;4.30;;;3.77;;
9848;SDS011;4963;51.444;6.528;2023-04-15T12:29:00;5.93;;;3.90;;
9848;SDS011;4963;51.444;6.528;2023-04-15T12:31:29;5.97;;;4.40;;
9848;SDS011;4963;51.444;6.528;2023-04-15T12:33:56;5.63;;;4.13;;
9848;SDS011;4963;51.444;6.528;2023-04-15T12:36:23;5.53;;;4.23;;
9848;SDS011;4963;51.444;6.528;2023-04-15T12:38:50;4.30;;;3.77;;
9848;SDS011;4963;51.444;6.528;2023-04-15T12:41:17;5.40;;;3.97;;
9848;SDS011;4963;51.444;6.528;2023-04-15T12:43:45;4.73;;;3.53;;
9848;SDS011;4963;51.444;6.528;2023-04-15T12:46:11;5.63;;;3.93;;
9848;SDS011;4963;51.444;6.528;2023-04-15T12:48:40;4.83;;;3.60;;
9848;SDS011;4963;51.444;6.528;2023-04-15T12:51:07;4.23;;;3.80;;
9848;SDS011;4963;51.444;6.528;2023-04-15T12:53:34;4.93;;;3.47;;
9848;SDS011;4963;51.444;6.528;2023-04-15T12:56:01;3.90;;;3.40;;
9848;SDS011;4963;51.444;6.528;2023-04-15T12:58:28;7.33;;;3.17;;
9848;SDS011;4963;51.444;6.528;2023-04-15T13:00:54;6.20;;;3.13;;
9848;SDS011;4963;51.444;6.528;2023-04-15T13:03:22;3.53;;;2.77;;
9848;SDS011;4963;51.444;6.528;2023-04-15T13:05:50;3.27;;;2.73;;
9848;SDS011;4963;51.444;6.528;2023-04-15T13:08:17;3.37;;;2.90;;
9848;SDS011;4963;51.444;6.528;2023-04-15T13:10:43;4.27;;;2.30;;
9848;SDS011;4963;51.444;6.528;2023-04-15T13:13:10;3.27;;;2.97;;
9848;SDS011;4963;51.444;6.528;2023-04-15T13:15:39;4.67;;;3.00;;
9848;SDS011;4963;51.444;6.528;2023-04-15T13:18:09;4.77;;;3.47;;
9848;SDS011;4963;51.444;6.528;2023-04-15T13:20:36;5.97;;;3.47;;
9848;SDS011;4963;51.444;6.528;2023-04-15T13:23:04;5.00;;;3.50;;
9848;SDS011;4963;51.444;6.528;2023-04-15T13:25:31;4.77;;;3.67;;
9848;SDS011;4963;51.444;6.528;2023-04-15T13:27:58;5.03;;;3.50;;
9848;SDS011;4963;51.444;6.528;2023-04-15T13:30:25;4.07;;;3.40;;
9848;SDS011;4963;51.444;6.528;2023-04-15T13:32:53;4.40;;;3.10;;
9848;SDS011;4963;51.444;6.528;2023-04-15T13:35:20;4.93;;;3.37;;
9848;SDS011;4963;51.444;6.528;2023-04-15T13:37:46;4.30;;;3.10;;
9848;SDS011;4963;51.444;6.528;2023-04-15T13:40:14;4.70;;;3.50;;
9848;SDS011;4963;51.444;6.528;2023-04-15T13:42:41;4.67;;;3.40;;
9848;SDS011;4963;51.444;6.528;2023-04-15T13:45:08;5.73;;;3.83;;
9848;SDS011;4963;51.444;6.528;2023-04-15T13:47:36;4.40;;;3.20;;
9848;SDS011;4963;51.444;6.528;2023-04-15T13:50:03;6.07;;;3.60;;
9848;SDS011;4963;51.444;6.528;2023-04-15T13:52:30;4.50;;;3.60;;
9848;SDS011;4963;51.444;6.528;2023-04-15T13:54:57;4.70;;;3.70;;
9848;SDS011;4963;51.444;6.528;2023-04-15T13:57:25;5.50;;;3.60;;
9848;SDS011;4963;51.444;6.528;2023-04-15T13:59:52;3.87;;;3.30;;
9848;SDS011;4963;51.444;6.528;2023-04-15T14:02:19;4.87;;;3.83;;
9848;SDS011;4963;51.444;6.528;2023-04-15T14:04:46;4.00;;;3.17;;
9848;SDS011;4963;51.444;6.528;2023-04-15T14:07:13;4.50;;;3.70;;
9848;SDS011;4963;51.444;6.528;2023-04-15T14:09:40;3.03;;;2.47;;
9848;SDS011;4963;51.444;6.528;2023-04-15T14:12:08;3.47;;;2.97;;
9848;SDS011;4963;51.444;6.528;2023-04-15T14:14:37;3.10;;;2.70;;
9848;SDS011;4963;51.444;6.528;2023-04-15T14:17:04;4.07;;;3.00;;
9848;SDS011;4963;51.444;6.528;2023-04-15T14:19:31;5.37;;;3.20;;
9848;SDS011;4963;51.444;6.528;2023-04-15T14:21:58;8.63;;;3.40;;
9848;SDS011;4963;51.444;6.528;2023-04-15T14:24:25;3.97;;;2.93;;
9848;SDS011;4963;51.444;6.528;2023-04-15T14:26:52;3.57;;;2.90;;
9848;SDS011;4963;51.444;6.528;2023-04-15T14:29:20;4.23;;;3.00;;
9848;SDS011;4963;51.444;6.528;2023-04-15T14:31:49;5.00;;;3.00;;
9848;SDS011;4963;51.444;6.528;2023-04-15T14:34:16;3.90;;;2.60;;
9848;SDS011;4963;51.444;6.528;2023-04-15T14:36:42;2.20;;;2.00;;
9848;SDS011;4963;51.444;6.528;2023-04-15T14:39:09;3.47;;;2.40;;
9848;SDS011;4963;51.444;6.528;2023-04-15T14:41:36;3.23;;;2.30;;
9848;SDS011;4963;51.444;6.528;2023-04-15T14:44:03;2.90;;;2.07;;
9848;SDS011;4963;51.444;6.528;2023-04-15T14:46:30;3.57;;;2.20;;
9848;SDS011;4963;51.444;6.528;2023-04-15T14:48:58;2.37;;;1.77;;
9848;SDS011;4963;51.444;6.528;2023-04-15T14:51:25;3.37;;;2.37;;
9848;SDS011;4963;51.444;6.528;2023-04-15T14:53:52;3.37;;;2.13;;
9848;SDS011;4963;51.444;6.528;2023-04-15T14:56:19;4.63;;;1.90;;
9848;SDS011;4963;51.444;6.528;2023-04-15T14:58:46;2.43;;;2.00;;
9848;SDS011;4963;51.444;6.528;2023-04-15T15:01:13;3.00;;;2.33;;
9848;SDS011;4963;51.444;6.528;2023-04-15T15:03:40;2.93;;;2.03;;
9848;SDS011;4963;51.444;6.528;2023-04-15T15:06:08;2.43;;;1.87;;
9848;SDS011;4963;51.444;6.528;2023-04-15T15:08:35;5.27;;;2.33;;
9848;SDS011;4963;51.444;6.528;2023-04-15T15:11:02;3.83;;;2.40;;
9848;SDS011;4963;51.444;6.528;2023-04-15T15:13:29;4.07;;;2.03;;
9848;SDS011;4963;51.444;6.528;2023-04-15T15:15:56;2.67;;;2.00;;